sensor_id;sensor_type;location;lat;lon;timestamp;temperature;humidity
70762;DHT22;58360;0.000;0.000;2023-08-06T00:00:06;16.50;99.90
70762;DHT22;58360;0.000;0.000;2023-08-06T00:02:32;16.40;99.90
70762;DHT22;58360;0.000;0.000;2023-08-06T00:04:57;16.50;99.90
70762;DHT22;58360;0.000;0.000;2023-08-06T00:07:23;16.50;99.90
70762;DHT22;58360;0.000;0.000;2023-08-06T00:30:31;16.50;99.90
70762;DHT22;58360;0.000;0.000;2023-08-06T00:35:32;16.50;99.90
70762;DHT22;58360;0.000;0.000;2023-08-06T00:45:44;16.60;99.90
70762;DHT22;58360;0.000;0.000;2023-08-06T00:48:09;16.60;99.90
70762;DHT22;58360;0.000;0.000;2023-08-06T01:32:01;16.60;99.90
70762;DHT22;58360;0.000;0.000;2023-08-06T01:37:29;16.60;99.90
70762;DHT22;58360;0.000;0.000;2023-08-06T01:39:55;16.60;99.90
70762;DHT22;58360;0.000;0.000;2023-08-06T01:42:20;16.60;99.90
70762;DHT22;58360;0.000;0.000;2023-08-06T01:44:46;16.60;99.90
70762;DHT22;58360;0.000;0.000;2023-08-06T01:47:11;16.60;99.90
70762;DHT22;58360;0.000;0.000;2023-08-06T01:49:37;16.60;99.90
70762;DHT22;58360;0.000;0.000;2023-08-06T01:52:02;16.60;99.90
70762;DHT22;58360;0.000;0.000;2023-08-06T01:54:28;16.70;99.90
70762;DHT22;58360;0.000;0.000;2023-08-06T01:56:53;16.70;99.90
70762;DHT22;58360;0.000;0.000;2023-08-06T02:07:05;16.70;99.90
70762;DHT22;58360;0.000;0.000;2023-08-06T02:09:31;16.70;99.90
70762;DHT22;58360;0.000;0.000;2023-08-06T02:11:56;16.70;99.90
70762;DHT22;58360;0.000;0.000;2023-08-06T02:14:22;16.70;99.90
70762;DHT22;58360;0.000;0.000;2023-08-06T02:16:47;16.70;99.90
70762;DHT22;58360;0.000;0.000;2023-08-06T02:19:13;16.70;99.90
70762;DHT22;58360;0.000;0.000;2023-08-06T02:21:38;16.70;99.90
70762;DHT22;58360;0.000;0.000;2023-08-06T02:24:04;16.80;99.90
70762;DHT22;58360;0.000;0.000;2023-08-06T02:26:29;16.80;99.90
70762;DHT22;58360;0.000;0.000;2023-08-06T02:28:55;16.70;99.90
70762;DHT22;58360;0.000;0.000;2023-08-06T02:31:20;16.80;99.90
70762;DHT22;58360;0.000;0.000;2023-08-06T02:33:46;16.70;99.90
70762;DHT22;58360;0.000;0.000;2023-08-06T02:36:11;16.80;99.90
70762;DHT22;58360;0.000;0.000;2023-08-06T02:38:37;16.80;99.90
70762;DHT22;58360;0.000;0.000;2023-08-06T02:41:04;16.80;99.90
70762;DHT22;58360;0.000;0.000;2023-08-06T02:43:29;16.70;99.90
70762;DHT22;58360;0.000;0.000;2023-08-06T02:45:58;16.70;99.90
70762;DHT22;58360;0.000;0.000;2023-08-06T02:48:24;16.80;99.90
70762;DHT22;58360;0.000;0.000;2023-08-06T02:50:50;16.80;99.90
70762;DHT22;58360;0.000;0.000;2023-08-06T02:53:15;16.80;99.90
70762;DHT22;58360;0.000;0.000;2023-08-06T02:55:45;16.80;99.90
70762;DHT22;58360;0.000;0.000;2023-08-06T02:58:11;16.80;99.90
70762;DHT22;58360;0.000;0.000;2023-08-06T03:00:37;16.80;99.90
70762;DHT22;58360;0.000;0.000;2023-08-06T03:03:03;16.80;99.90
70762;DHT22;58360;0.000;0.000;2023-08-06T03:05:28;16.80;99.90
70762;DHT22;58360;0.000;0.000;2023-08-06T03:07:54;16.80;99.90
70762;DHT22;58360;0.000;0.000;2023-08-06T03:10:19;16.90;99.90
70762;DHT22;58360;0.000;0.000;2023-08-06T03:12:45;16.90;99.90
70762;DHT22;58360;0.000;0.000;2023-08-06T03:15:10;16.90;99.90
70762;DHT22;58360;0.000;0.000;2023-08-06T03:17:36;16.90;99.90
70762;DHT22;58360;0.000;0.000;2023-08-06T03:20:01;16.90;99.90
70762;DHT22;58360;0.000;0.000;2023-08-06T03:22:27;16.90;99.90
70762;DHT22;58360;0.000;0.000;2023-08-06T03:24:53;16.90;99.90
70762;DHT22;58360;0.000;0.000;2023-08-06T03:27:18;16.90;99.90
70762;DHT22;58360;0.000;0.000;2023-08-06T03:29:44;16.90;99.90
70762;DHT22;58360;0.000;0.000;2023-08-06T03:32:09;16.90;99.90
70762;DHT22;58360;0.000;0.000;2023-08-06T03:34:35;16.80;99.90
70762;DHT22;58360;0.000;0.000;2023-08-06T03:37:00;16.80;99.90
70762;DHT22;58360;0.000;0.000;2023-08-06T03:39:26;16.80;99.90
70762;DHT22;58360;0.000;0.000;2023-08-06T03:41:51;16.90;99.90
70762;DHT22;58360;0.000;0.000;2023-08-06T03:44:17;16.90;99.90
70762;DHT22;58360;0.000;0.000;2023-08-06T03:46:42;16.90;99.90
70762;DHT22;58360;0.000;0.000;2023-08-06T03:49:08;17.00;99.90
70762;DHT22;58360;0.000;0.000;2023-08-06T03:51:33;16.90;99.90
70762;DHT22;58360;0.000;0.000;2023-08-06T03:53:59;17.00;99.90
70762;DHT22;58360;0.000;0.000;2023-08-06T03:56:24;17.10;99.90
70762;DHT22;58360;0.000;0.000;2023-08-06T03:58:50;17.10;99.90
70762;DHT22;58360;0.000;0.000;2023-08-06T04:01:16;17.30;99.90
70762;DHT22;58360;0.000;0.000;2023-08-06T04:03:41;17.50;99.90
70762;DHT22;58360;0.000;0.000;2023-08-06T04:06:07;17.30;99.90
70762;DHT22;58360;0.000;0.000;2023-08-06T04:08:32;17.20;99.90
70762;DHT22;58360;0.000;0.000;2023-08-06T04:10:58;17.20;99.90
70762;DHT22;58360;0.000;0.000;2023-08-06T04:13:24;17.20;99.90
70762;DHT22;58360;0.000;0.000;2023-08-06T04:15:49;17.40;99.90
70762;DHT22;58360;0.000;0.000;2023-08-06T04:33:47;17.20;99.90
70762;DHT22;58360;0.000;0.000;2023-08-06T04:36:12;17.20;99.90
70762;DHT22;58360;0.000;0.000;2023-08-06T04:43:48;17.00;99.90
70762;DHT22;58360;0.000;0.000;2023-08-06T04:46:14;17.10;99.90
70762;DHT22;58360;0.000;0.000;2023-08-06T04:48:40;17.10;99.90
70762;DHT22;58360;0.000;0.000;2023-08-06T04:51:05;17.10;99.90
70762;DHT22;58360;0.000;0.000;2023-08-06T04:53:31;17.10;99.90
70762;DHT22;58360;0.000;0.000;2023-08-06T04:55:57;17.00;99.90
70762;DHT22;58360;0.000;0.000;2023-08-06T04:58:22;16.70;99.90
70762;DHT22;58360;0.000;0.000;2023-08-06T05:00:48;16.60;99.90
70762;DHT22;58360;0.000;0.000;2023-08-06T05:03:14;16.60;99.90
70762;DHT22;58360;0.000;0.000;2023-08-06T05:05:40;16.40;99.90
70762;DHT22;58360;0.000;0.000;2023-08-06T05:08:05;16.30;99.90
70762;DHT22;58360;0.000;0.000;2023-08-06T05:10:31;16.20;99.90
70762;DHT22;58360;0.000;0.000;2023-08-06T05:12:57;16.10;99.90
70762;DHT22;58360;0.000;0.000;2023-08-06T05:15:22;16.20;99.90
70762;DHT22;58360;0.000;0.000;2023-08-06T05:17:50;16.30;99.90
70762;DHT22;58360;0.000;0.000;2023-08-06T05:20:16;16.30;99.90
70762;DHT22;58360;0.000;0.000;2023-08-06T05:22:43;16.30;99.90
70762;DHT22;58360;0.000;0.000;2023-08-06T05:25:08;16.30;99.90
70762;DHT22;58360;0.000;0.000;2023-08-06T05:27:34;16.10;99.90
70762;DHT22;58360;0.000;0.000;2023-08-06T05:30:00;16.10;99.90
70762;DHT22;58360;0.000;0.000;2023-08-06T05:32:25;16.10;99.90
70762;DHT22;58360;0.000;0.000;2023-08-06T05:34:51;16.10;99.90
70762;DHT22;58360;0.000;0.000;2023-08-06T05:37:16;16.30;99.90
70762;DHT22;58360;0.000;0.000;2023-08-06T05:39:42;16.20;99.90
70762;DHT22;58360;0.000;0.000;2023-08-06T05:42:08;16.20;99.90
70762;DHT22;58360;0.000;0.000;2023-08-06T05:44:33;16.30;99.90
70762;DHT22;58360;0.000;0.000;2023-08-06T05:46:59;16.20;99.90
70762;DHT22;58360;0.000;0.000;2023-08-06T05:49:24;16.20;99.90
70762;DHT22;58360;0.000;0.000;2023-08-06T05:51:50;16.10;99.90
70762;DHT22;58360;0.000;0.000;2023-08-06T05:54:18;16.10;99.90
70762;DHT22;58360;0.000;0.000;2023-08-06T05:56:44;16.00;99.90
70762;DHT22;58360;0.000;0.000;2023-08-06T05:59:10;16.20;99.90
70762;DHT22;58360;0.000;0.000;2023-08-06T06:01:35;16.00;99.90
70762;DHT22;58360;0.000;0.000;2023-08-06T06:04:01;16.10;99.90
70762;DHT22;58360;0.000;0.000;2023-08-06T06:06:27;16.20;99.90
70762;DHT22;58360;0.000;0.000;2023-08-06T06:08:52;16.20;99.90
70762;DHT22;58360;0.000;0.000;2023-08-06T06:11:18;16.20;99.90
70762;DHT22;58360;0.000;0.000;2023-08-06T06:13:48;16.30;99.90
70762;DHT22;58360;0.000;0.000;2023-08-06T06:16:14;16.30;99.90
70762;DHT22;58360;0.000;0.000;2023-08-06T06:18:40;16.40;99.90
70762;DHT22;58360;0.000;0.000;2023-08-06T06:21:05;16.10;99.90
70762;DHT22;58360;0.000;0.000;2023-08-06T06:23:31;16.30;99.90
70762;DHT22;58360;0.000;0.000;2023-08-06T06:25:56;16.30;99.90
70762;DHT22;58360;0.000;0.000;2023-08-06T06:28:22;16.40;99.90
70762;DHT22;58360;0.000;0.000;2023-08-06T06:30:48;16.50;99.90
70762;DHT22;58360;0.000;0.000;2023-08-06T06:33:14;16.30;99.90
70762;DHT22;58360;0.000;0.000;2023-08-06T06:35:39;16.60;99.90
70762;DHT22;58360;0.000;0.000;2023-08-06T06:40:40;16.50;99.90
70762;DHT22;58360;0.000;0.000;2023-08-06T06:43:05;16.50;99.90
70762;DHT22;58360;0.000;0.000;2023-08-06T06:45:31;16.60;99.90
70762;DHT22;58360;0.000;0.000;2023-08-06T06:47:56;16.60;99.90
70762;DHT22;58360;0.000;0.000;2023-08-06T06:50:22;16.60;99.90
70762;DHT22;58360;0.000;0.000;2023-08-06T06:52:47;16.60;99.90
70762;DHT22;58360;0.000;0.000;2023-08-06T06:55:13;16.60;99.90
70762;DHT22;58360;0.000;0.000;2023-08-06T06:57:39;16.60;99.90
70762;DHT22;58360;0.000;0.000;2023-08-06T07:00:04;16.70;99.90
70762;DHT22;58360;0.000;0.000;2023-08-06T07:02:30;16.60;99.90
70762;DHT22;58360;0.000;0.000;2023-08-06T07:04:56;16.60;99.90
70762;DHT22;58360;0.000;0.000;2023-08-06T07:07:21;16.60;99.90
70762;DHT22;58360;0.000;0.000;2023-08-06T07:12:22;16.50;99.90
70762;DHT22;58360;0.000;0.000;2023-08-06T07:14:49;16.40;99.90
70762;DHT22;58360;0.000;0.000;2023-08-06T07:19:50;16.50;99.90
70762;DHT22;58360;0.000;0.000;2023-08-06T07:22:15;16.50;99.90
70762;DHT22;58360;0.000;0.000;2023-08-06T07:24:41;16.50;99.90
70762;DHT22;58360;0.000;0.000;2023-08-06T07:34:45;16.60;99.90
70762;DHT22;58360;0.000;0.000;2023-08-06T07:42:11;16.70;99.90
70762;DHT22;58360;0.000;0.000;2023-08-06T07:44:37;16.70;99.90
70762;DHT22;58360;0.000;0.000;2023-08-06T07:47:02;16.80;99.90
70762;DHT22;58360;0.000;0.000;2023-08-06T07:49:28;16.80;99.90
70762;DHT22;58360;0.000;0.000;2023-08-06T07:51:54;16.80;99.90
70762;DHT22;58360;0.000;0.000;2023-08-06T07:54:19;16.70;99.90
70762;DHT22;58360;0.000;0.000;2023-08-06T07:59:17;16.70;99.90
70762;DHT22;58360;0.000;0.000;2023-08-06T08:04:11;16.80;99.90
70762;DHT22;58360;0.000;0.000;2023-08-06T08:06:36;16.90;99.90
70762;DHT22;58360;0.000;0.000;2023-08-06T08:09:02;16.80;99.90
70762;DHT22;58360;0.000;0.000;2023-08-06T08:11:28;16.80;99.90
70762;DHT22;58360;0.000;0.000;2023-08-06T08:13:53;17.00;99.90
70762;DHT22;58360;0.000;0.000;2023-08-06T08:16:19;17.10;99.90
70762;DHT22;58360;0.000;0.000;2023-08-06T08:21:20;17.10;99.90
70762;DHT22;58360;0.000;0.000;2023-08-06T08:23:46;17.30;99.90
70762;DHT22;58360;0.000;0.000;2023-08-06T08:28:39;17.40;99.90
70762;DHT22;58360;0.000;0.000;2023-08-06T08:31:07;17.50;99.90
70762;DHT22;58360;0.000;0.000;2023-08-06T08:33:33;17.60;99.90
70762;DHT22;58360;0.000;0.000;2023-08-06T08:35:58;17.50;99.90
70762;DHT22;58360;0.000;0.000;2023-08-06T08:38:24;17.60;99.90
70762;DHT22;58360;0.000;0.000;2023-08-06T08:40:51;17.60;99.90
70762;DHT22;58360;0.000;0.000;2023-08-06T08:43:17;17.60;99.90
70762;DHT22;58360;0.000;0.000;2023-08-06T08:45:43;17.70;99.90
70762;DHT22;58360;0.000;0.000;2023-08-06T08:53:18;18.00;99.90
70762;DHT22;58360;0.000;0.000;2023-08-06T08:55:46;18.00;99.90
70762;DHT22;58360;0.000;0.000;2023-08-06T08:58:12;18.00;99.90
70762;DHT22;58360;0.000;0.000;2023-08-06T09:00:38;17.80;99.90
70762;DHT22;58360;0.000;0.000;2023-08-06T09:05:44;17.90;99.90
70762;DHT22;58360;0.000;0.000;2023-08-06T09:08:11;18.00;99.90
70762;DHT22;58360;0.000;0.000;2023-08-06T09:10:36;18.10;99.90
70762;DHT22;58360;0.000;0.000;2023-08-06T09:13:04;18.10;99.90
70762;DHT22;58360;0.000;0.000;2023-08-06T09:15:29;18.00;99.90
70762;DHT22;58360;0.000;0.000;2023-08-06T09:17:55;18.10;99.90
70762;DHT22;58360;0.000;0.000;2023-08-06T09:20:21;18.10;99.90
70762;DHT22;58360;0.000;0.000;2023-08-06T09:22:47;18.00;99.90
70762;DHT22;58360;0.000;0.000;2023-08-06T09:25:22;17.80;99.90
70762;DHT22;58360;0.000;0.000;2023-08-06T09:30:31;17.40;99.90
70762;DHT22;58360;0.000;0.000;2023-08-06T09:32:57;17.50;99.90
70762;DHT22;58360;0.000;0.000;2023-08-06T09:35:22;17.10;99.90
70762;DHT22;58360;0.000;0.000;2023-08-06T09:37:48;17.00;99.90
70762;DHT22;58360;0.000;0.000;2023-08-06T09:40:30;17.00;99.90
70762;DHT22;58360;0.000;0.000;2023-08-06T09:42:56;17.10;99.90
70762;DHT22;58360;0.000;0.000;2023-08-06T09:45:22;17.10;99.90
70762;DHT22;58360;0.000;0.000;2023-08-06T09:47:49;17.20;99.90
70762;DHT22;58360;0.000;0.000;2023-08-06T09:50:15;17.00;99.90
70762;DHT22;58360;0.000;0.000;2023-08-06T09:52:42;16.90;99.90
70762;DHT22;58360;0.000;0.000;2023-08-06T09:55:08;16.90;99.90
70762;DHT22;58360;0.000;0.000;2023-08-06T09:57:36;17.00;99.90
70762;DHT22;58360;0.000;0.000;2023-08-06T10:00:02;17.00;99.90
70762;DHT22;58360;0.000;0.000;2023-08-06T10:02:28;17.10;99.90
70762;DHT22;58360;0.000;0.000;2023-08-06T10:04:54;17.20;99.90
70762;DHT22;58360;0.000;0.000;2023-08-06T10:07:21;17.20;99.90
70762;DHT22;58360;0.000;0.000;2023-08-06T10:09:48;17.20;99.90
70762;DHT22;58360;0.000;0.000;2023-08-06T10:12:13;17.10;99.90
70762;DHT22;58360;0.000;0.000;2023-08-06T10:14:40;17.00;99.90
70762;DHT22;58360;0.000;0.000;2023-08-06T10:17:06;16.90;99.90
70762;DHT22;58360;0.000;0.000;2023-08-06T10:19:33;16.90;99.90
70762;DHT22;58360;0.000;0.000;2023-08-06T10:22:32;16.80;99.90
70762;DHT22;58360;0.000;0.000;2023-08-06T10:24:53;16.70;99.90
70762;DHT22;58360;0.000;0.000;2023-08-06T10:27:21;16.70;99.90
70762;DHT22;58360;0.000;0.000;2023-08-06T10:29:47;16.70;99.90
70762;DHT22;58360;0.000;0.000;2023-08-06T10:32:14;16.70;99.90
70762;DHT22;58360;0.000;0.000;2023-08-06T10:34:53;17.00;99.90
70762;DHT22;58360;0.000;0.000;2023-08-06T10:37:19;17.00;99.90
70762;DHT22;58360;0.000;0.000;2023-08-06T10:39:51;17.20;99.90
70762;DHT22;58360;0.000;0.000;2023-08-06T10:42:21;17.30;99.90
70762;DHT22;58360;0.000;0.000;2023-08-06T10:47:31;17.60;99.90
70762;DHT22;58360;0.000;0.000;2023-08-06T10:50:02;17.60;99.90
70762;DHT22;58360;0.000;0.000;2023-08-06T10:52:28;17.60;99.90
70762;DHT22;58360;0.000;0.000;2023-08-06T10:54:54;17.60;99.90
70762;DHT22;58360;0.000;0.000;2023-08-06T11:05:07;17.30;99.90
70762;DHT22;58360;0.000;0.000;2023-08-06T11:07:33;17.40;99.90
70762;DHT22;58360;0.000;0.000;2023-08-06T11:10:02;17.40;99.90
70762;DHT22;58360;0.000;0.000;2023-08-06T11:15:34;17.80;99.90
70762;DHT22;58360;0.000;0.000;2023-08-06T11:18:00;17.90;99.90
70762;DHT22;58360;0.000;0.000;2023-08-06T11:23:03;18.10;99.90
70762;DHT22;58360;0.000;0.000;2023-08-06T11:28:05;18.20;99.90
70762;DHT22;58360;0.000;0.000;2023-08-06T11:30:30;18.40;99.90
70762;DHT22;58360;0.000;0.000;2023-08-06T11:32:56;18.60;99.90
70762;DHT22;58360;0.000;0.000;2023-08-06T11:35:22;18.80;99.90
70762;DHT22;58360;0.000;0.000;2023-08-06T11:37:47;18.80;99.90
70762;DHT22;58360;0.000;0.000;2023-08-06T11:40:14;18.60;99.90
70762;DHT22;58360;0.000;0.000;2023-08-06T11:42:40;18.50;99.90
70762;DHT22;58360;0.000;0.000;2023-08-06T11:45:06;18.50;99.90
70762;DHT22;58360;0.000;0.000;2023-08-06T11:47:34;18.60;99.90
70762;DHT22;58360;0.000;0.000;2023-08-06T11:52:34;18.30;99.90
70762;DHT22;58360;0.000;0.000;2023-08-06T12:00:11;17.80;99.90
70762;DHT22;58360;0.000;0.000;2023-08-06T12:02:40;17.70;99.90
70762;DHT22;58360;0.000;0.000;2023-08-06T12:10:18;17.30;99.90
70762;DHT22;58360;0.000;0.000;2023-08-06T12:12:45;17.10;99.90
70762;DHT22;58360;0.000;0.000;2023-08-06T12:15:10;17.30;99.90
70762;DHT22;58360;0.000;0.000;2023-08-06T12:17:36;17.20;99.90
70762;DHT22;58360;0.000;0.000;2023-08-06T12:22:38;17.30;99.90
70762;DHT22;58360;0.000;0.000;2023-08-06T12:25:06;17.20;99.90
70762;DHT22;58360;0.000;0.000;2023-08-06T12:27:36;17.20;99.90
70762;DHT22;58360;0.000;0.000;2023-08-06T12:30:02;17.10;99.90
70762;DHT22;58360;0.000;0.000;2023-08-06T12:32:28;17.00;99.90
70762;DHT22;58360;0.000;0.000;2023-08-06T12:34:54;17.00;99.90
70762;DHT22;58360;0.000;0.000;2023-08-06T12:37:20;17.00;99.90
70762;DHT22;58360;0.000;0.000;2023-08-06T12:39:46;16.90;99.90
70762;DHT22;58360;0.000;0.000;2023-08-06T12:42:11;17.10;99.90
70762;DHT22;58360;0.000;0.000;2023-08-06T12:44:37;17.10;99.90
70762;DHT22;58360;0.000;0.000;2023-08-06T12:47:02;17.20;99.90
70762;DHT22;58360;0.000;0.000;2023-08-06T12:49:28;17.30;99.90
70762;DHT22;58360;0.000;0.000;2023-08-06T12:51:54;17.40;99.90
70762;DHT22;58360;0.000;0.000;2023-08-06T12:54:22;17.40;99.90
70762;DHT22;58360;0.000;0.000;2023-08-06T12:56:48;17.40;99.90
70762;DHT22;58360;0.000;0.000;2023-08-06T12:59:14;17.40;99.90
70762;DHT22;58360;0.000;0.000;2023-08-06T13:01:40;17.20;99.90
70762;DHT22;58360;0.000;0.000;2023-08-06T13:04:06;17.10;99.90
70762;DHT22;58360;0.000;0.000;2023-08-06T13:06:32;17.10;99.90
70762;DHT22;58360;0.000;0.000;2023-08-06T13:09:04;16.90;99.90
70762;DHT22;58360;0.000;0.000;2023-08-06T13:11:31;16.70;99.90
70762;DHT22;58360;0.000;0.000;2023-08-06T13:14:06;16.80;99.90
70762;DHT22;58360;0.000;0.000;2023-08-06T13:16:33;16.70;99.90
70762;DHT22;58360;0.000;0.000;2023-08-06T13:18:58;16.60;99.90
70762;DHT22;58360;0.000;0.000;2023-08-06T13:21:24;16.70;99.90
70762;DHT22;58360;0.000;0.000;2023-08-06T13:23:50;16.80;99.90
70762;DHT22;58360;0.000;0.000;2023-08-06T13:41:39;16.70;99.90
70762;DHT22;58360;0.000;0.000;2023-08-06T13:44:04;16.50;99.90
70762;DHT22;58360;0.000;0.000;2023-08-06T13:46:30;16.40;99.90
70762;DHT22;58360;0.000;0.000;2023-08-06T13:48:56;16.50;99.90
70762;DHT22;58360;0.000;0.000;2023-08-06T14:21:41;16.00;99.90
70762;DHT22;58360;0.000;0.000;2023-08-06T14:24:06;16.00;99.90
70762;DHT22;58360;0.000;0.000;2023-08-06T14:26:32;16.00;99.90
70762;DHT22;58360;0.000;0.000;2023-08-06T14:28:58;16.00;99.90
70762;DHT22;58360;0.000;0.000;2023-08-06T14:31:23;16.10;99.90
70762;DHT22;58360;0.000;0.000;2023-08-06T14:33:49;16.10;99.90
70762;DHT22;58360;0.000;0.000;2023-08-06T14:36:15;15.90;99.90
70762;DHT22;58360;0.000;0.000;2023-08-06T14:38:40;16.00;99.90
70762;DHT22;58360;0.000;0.000;2023-08-06T14:41:06;16.30;99.90
70762;DHT22;58360;0.000;0.000;2023-08-06T14:43:32;16.30;99.90
70762;DHT22;58360;0.000;0.000;2023-08-06T14:45:57;16.50;99.90
70762;DHT22;58360;0.000;0.000;2023-08-06T14:48:23;16.40;99.90
70762;DHT22;58360;0.000;0.000;2023-08-06T14:50:49;16.60;99.90
70762;DHT22;58360;0.000;0.000;2023-08-06T14:53:14;16.70;99.90
70762;DHT22;58360;0.000;0.000;2023-08-06T15:11:06;17.10;99.90
70762;DHT22;58360;0.000;0.000;2023-08-06T15:18:43;16.90;99.90
70762;DHT22;58360;0.000;0.000;2023-08-06T15:21:09;16.90;99.90
70762;DHT22;58360;0.000;0.000;2023-08-06T15:23:35;16.70;99.90
70762;DHT22;58360;0.000;0.000;2023-08-06T15:57:02;17.00;99.90
70762;DHT22;58360;0.000;0.000;2023-08-06T16:02:04;17.30;99.90
70762;DHT22;58360;0.000;0.000;2023-08-06T16:04:31;17.40;99.90
70762;DHT22;58360;0.000;0.000;2023-08-06T16:06:57;17.40;99.90
70762;DHT22;58360;0.000;0.000;2023-08-06T16:19:44;17.20;99.90
70762;DHT22;58360;0.000;0.000;2023-08-06T16:22:10;17.50;99.90
70762;DHT22;58360;0.000;0.000;2023-08-06T16:24:36;17.60;99.90
70762;DHT22;58360;0.000;0.000;2023-08-06T16:27:01;17.70;99.90
70762;DHT22;58360;0.000;0.000;2023-08-06T16:29:27;17.80;99.90
70762;DHT22;58360;0.000;0.000;2023-08-06T16:31:52;17.80;99.90
70762;DHT22;58360;0.000;0.000;2023-08-06T16:34:19;17.80;99.90
70762;DHT22;58360;0.000;0.000;2023-08-06T16:36:44;17.90;99.90
70762;DHT22;58360;0.000;0.000;2023-08-06T16:39:10;17.90;99.90
70762;DHT22;58360;0.000;0.000;2023-08-06T16:41:35;18.10;99.90
70762;DHT22;58360;0.000;0.000;2023-08-06T16:44:01;18.20;99.90
70762;DHT22;58360;0.000;0.000;2023-08-06T16:46:27;18.20;99.90
70762;DHT22;58360;0.000;0.000;2023-08-06T16:51:28;18.30;99.90
70762;DHT22;58360;0.000;0.000;2023-08-06T16:53:53;18.50;99.90
70762;DHT22;58360;0.000;0.000;2023-08-06T16:56:19;18.60;99.90
70762;DHT22;58360;0.000;0.000;2023-08-06T16:58:44;18.70;99.60
70762;DHT22;58360;0.000;0.000;2023-08-06T17:03:45;18.40;99.20
70762;DHT22;58360;0.000;0.000;2023-08-06T17:06:11;18.40;99.10
70762;DHT22;58360;0.000;0.000;2023-08-06T17:08:39;18.20;99.00
70762;DHT22;58360;0.000;0.000;2023-08-06T17:20:00;17.80;99.40
70762;DHT22;58360;0.000;0.000;2023-08-06T17:22:26;17.70;99.80
70762;DHT22;58360;0.000;0.000;2023-08-06T17:24:51;17.70;99.90
70762;DHT22;58360;0.000;0.000;2023-08-06T17:27:17;17.70;99.90
70762;DHT22;58360;0.000;0.000;2023-08-06T17:29:42;17.60;99.90
70762;DHT22;58360;0.000;0.000;2023-08-06T17:37:18;17.60;99.90
70762;DHT22;58360;0.000;0.000;2023-08-06T17:39:44;17.70;99.90
70762;DHT22;58360;0.000;0.000;2023-08-06T17:42:10;17.90;99.90
70762;DHT22;58360;0.000;0.000;2023-08-06T17:44:39;17.90;99.90
70762;DHT22;58360;0.000;0.000;2023-08-06T17:47:05;18.00;99.90
70762;DHT22;58360;0.000;0.000;2023-08-06T17:59:53;18.20;99.10
70762;DHT22;58360;0.000;0.000;2023-08-06T18:02:18;18.20;99.40
70762;DHT22;58360;0.000;0.000;2023-08-06T18:04:44;18.00;99.90
70762;DHT22;58360;0.000;0.000;2023-08-06T18:07:09;18.00;99.90
70762;DHT22;58360;0.000;0.000;2023-08-06T18:09:35;18.00;99.90
70762;DHT22;58360;0.000;0.000;2023-08-06T18:12:01;17.90;99.90
70762;DHT22;58360;0.000;0.000;2023-08-06T18:14:27;17.60;99.90
70762;DHT22;58360;0.000;0.000;2023-08-06T18:16:52;17.60;99.90
70762;DHT22;58360;0.000;0.000;2023-08-06T18:19:18;17.70;99.90
70762;DHT22;58360;0.000;0.000;2023-08-06T18:29:29;17.80;98.30
70762;DHT22;58360;0.000;0.000;2023-08-06T18:31:55;17.70;98.60
70762;DHT22;58360;0.000;0.000;2023-08-06T18:34:20;17.80;98.40
70762;DHT22;58360;0.000;0.000;2023-08-06T18:36:46;17.80;97.70
70762;DHT22;58360;0.000;0.000;2023-08-06T18:39:12;17.90;97.70
70762;DHT22;58360;0.000;0.000;2023-08-06T18:41:37;17.70;98.00
70762;DHT22;58360;0.000;0.000;2023-08-06T18:44:03;17.60;98.70
70762;DHT22;58360;0.000;0.000;2023-08-06T18:51:49;17.40;97.50
70762;DHT22;58360;0.000;0.000;2023-08-06T18:54:15;17.30;97.80
70762;DHT22;58360;0.000;0.000;2023-08-06T18:56:40;17.20;97.50
70762;DHT22;58360;0.000;0.000;2023-08-06T19:40:27;16.50;98.20
70762;DHT22;58360;0.000;0.000;2023-08-06T19:45:28;16.40;98.50
70762;DHT22;58360;0.000;0.000;2023-08-06T19:53:04;16.20;98.50
70762;DHT22;58360;0.000;0.000;2023-08-06T19:55:30;16.30;98.90
70762;DHT22;58360;0.000;0.000;2023-08-06T19:57:56;16.20;98.30
70762;DHT22;58360;0.000;0.000;2023-08-06T20:00:22;16.20;98.60
70762;DHT22;58360;0.000;0.000;2023-08-06T20:02:49;16.20;98.80
70762;DHT22;58360;0.000;0.000;2023-08-06T20:05:15;16.10;98.80
70762;DHT22;58360;0.000;0.000;2023-08-06T20:07:41;16.00;98.80
70762;DHT22;58360;0.000;0.000;2023-08-06T20:10:07;15.90;98.80
70762;DHT22;58360;0.000;0.000;2023-08-06T20:15:08;16.00;98.80
70762;DHT22;58360;0.000;0.000;2023-08-06T20:17:34;16.00;98.90
70762;DHT22;58360;0.000;0.000;2023-08-06T20:20:00;15.80;99.00
70762;DHT22;58360;0.000;0.000;2023-08-06T20:22:25;15.90;99.50
70762;DHT22;58360;0.000;0.000;2023-08-06T20:24:51;15.90;99.00
70762;DHT22;58360;0.000;0.000;2023-08-06T20:27:18;15.80;99.30
70762;DHT22;58360;0.000;0.000;2023-08-06T20:29:44;15.80;99.70
70762;DHT22;58360;0.000;0.000;2023-08-06T20:32:10;15.70;99.40
70762;DHT22;58360;0.000;0.000;2023-08-06T20:34:36;15.90;98.80
70762;DHT22;58360;0.000;0.000;2023-08-06T20:42:11;15.90;99.30
70762;DHT22;58360;0.000;0.000;2023-08-06T20:44:37;15.70;99.20
70762;DHT22;58360;0.000;0.000;2023-08-06T20:47:04;15.70;99.60
70762;DHT22;58360;0.000;0.000;2023-08-06T20:49:30;15.80;99.10
70762;DHT22;58360;0.000;0.000;2023-08-06T20:51:56;15.90;99.20
70762;DHT22;58360;0.000;0.000;2023-08-06T20:54:22;15.70;99.10
70762;DHT22;58360;0.000;0.000;2023-08-06T20:56:47;15.70;99.20
70762;DHT22;58360;0.000;0.000;2023-08-06T20:59:13;15.70;99.30
70762;DHT22;58360;0.000;0.000;2023-08-06T21:01:39;15.60;99.60
70762;DHT22;58360;0.000;0.000;2023-08-06T21:04:04;15.60;99.30
70762;DHT22;58360;0.000;0.000;2023-08-06T21:06:30;15.60;99.40
70762;DHT22;58360;0.000;0.000;2023-08-06T21:26:54;15.50;99.40
70762;DHT22;58360;0.000;0.000;2023-08-06T21:34:31;15.30;99.90
70762;DHT22;58360;0.000;0.000;2023-08-06T21:36:56;15.40;99.90
70762;DHT22;58360;0.000;0.000;2023-08-06T21:39:22;15.30;99.90
70762;DHT22;58360;0.000;0.000;2023-08-06T21:41:48;15.30;99.90
70762;DHT22;58360;0.000;0.000;2023-08-06T21:49:24;15.30;99.80
70762;DHT22;58360;0.000;0.000;2023-08-06T21:54:25;15.20;99.90
70762;DHT22;58360;0.000;0.000;2023-08-06T22:09:48;15.20;99.90
70762;DHT22;58360;0.000;0.000;2023-08-06T22:12:14;15.20;99.90
70762;DHT22;58360;0.000;0.000;2023-08-06T22:14:39;15.00;99.90
70762;DHT22;58360;0.000;0.000;2023-08-06T22:17:05;15.00;99.90
70762;DHT22;58360;0.000;0.000;2023-08-06T22:19:31;15.00;99.90
70762;DHT22;58360;0.000;0.000;2023-08-06T22:21:56;15.00;99.90
70762;DHT22;58360;0.000;0.000;2023-08-06T22:24:22;14.90;99.90
70762;DHT22;58360;0.000;0.000;2023-08-06T23:25:40;15.00;99.90
